Map

Track Data

SID SEASON NUMBER BASIN SUBBASIN NAME ISO_TIME NATURE LAT LON WMO_WIND WMO_PRES WMO_AGENCY TRACK_TYPE DIST2LAND LANDFALL IFLAG USA_AGENCY USA_ATCF_ID USA_LAT USA_LON USA_RECORD USA_STATUS USA_WIND USA_PRES USA_SSHS USA_R34_NE USA_R34_SE USA_R34_SW USA_R34_NW USA_R50_NE USA_R50_SE USA_R50_SW USA_R50_NW USA_R64_NE USA_R64_SE USA_R64_SW USA_R64_NW USA_POCI USA_ROCI USA_RMW USA_EYE TOKYO_LAT TOKYO_LON TOKYO_GRADE TOKYO_WIND TOKYO_PRES TOKYO_R50_DIR TOKYO_R50_LONG TOKYO_R50_SHORT TOKYO_R30_DIR TOKYO_R30_LONG TOKYO_R30_SHORT TOKYO_LAND CMA_LAT CMA_LON CMA_CAT CMA_WIND CMA_PRES HKO_LAT HKO_LON HKO_CAT HKO_WIND HKO_PRES NEWDELHI_LAT NEWDELHI_LON NEWDELHI_GRADE NEWDELHI_WIND NEWDELHI_PRES NEWDELHI_CI NEWDELHI_DP NEWDELHI_POCI REUNION_LAT REUNION_LON REUNION_TYPE REUNION_WIND REUNION_PRES REUNION_TNUM REUNION_CI REUNION_RMW REUNION_R34_NE REUNION_R34_SE REUNION_R34_SW REUNION_R34_NW REUNION_R50_NE REUNION_R50_SE REUNION_R50_SW REUNION_R50_NW REUNION_R64_NE REUNION_R64_SE REUNION_R64_SW REUNION_R64_NW BOM_LAT BOM_LON BOM_TYPE BOM_WIND BOM_PRES BOM_TNUM BOM_CI BOM_RMW BOM_R34_NE BOM_R34_SE BOM_R34_SW BOM_R34_NW BOM_R50_NE BOM_R50_SE BOM_R50_SW BOM_R50_NW BOM_R64_NE BOM_R64_SE BOM_R64_SW BOM_R64_NW BOM_ROCI BOM_POCI BOM_EYE BOM_POS_METHOD BOM_PRES_METHOD NADI_LAT NADI_LON NADI_CAT NADI_WIND NADI_PRES WELLINGTON_LAT WELLINGTON_LON WELLINGTON_WIND WELLINGTON_PRES DS824_LAT DS824_LON DS824_STAGE DS824_WIND DS824_PRES TD9636_LAT TD9636_LON TD9636_STAGE TD9636_WIND TD9636_PRES TD9635_LAT TD9635_LON TD9635_WIND TD9635_PRES TD9635_ROCI NEUMANN_LAT NEUMANN_LON NEUMANN_CLASS NEUMANN_WIND NEUMANN_PRES MLC_LAT MLC_LON MLC_CLASS MLC_WIND MLC_PRES USA_GUST BOM_GUST BOM_GUST_PER REUNION_GUST REUNION_GUST_PER USA_SEAHGT USA_SEARAD_NE USA_SEARAD_SE USA_SEARAD_SW USA_SEARAD_NW STORM_SPEED STORM_DIR
1869042S18054 1869 3 SI MM NOT_NAMED 1869-02-11 06:00:00 NR -17.8000 54.1000 reunion main 379 379 _____O________ -1 -17.8000 54.1000 99 9.90000 2 234
1869042S18054 1869 3 SI MM NOT_NAMED 1869-02-11 09:00:00 NR -17.8464 54.0317 main 383 372 _____P________ -1 -17.8464 54.0317 99 2 234
1869042S18054 1869 3 SI MM NOT_NAMED 1869-02-11 12:00:00 NR -17.8966 53.9603 main 372 366 _____P________ -1 -17.8966 53.9603 99 2 233
1869042S18054 1869 3 SI MM NOT_NAMED 1869-02-11 15:00:00 NR -17.9548 53.8830 main 366 366 _____P________ -1 -17.9548 53.8830 99 2 230
1869042S18054 1869 3 SI MM NOT_NAMED 1869-02-11 18:00:00 NR -18.0246 53.7966 main 370 360 _____P________ -1 -18.0246 53.7966 99 2 228
1869042S18054 1869 3 SI MM NOT_NAMED 1869-02-11 21:00:00 NR -18.1102 53.6982 main 365 355 _____P________ -1 -18.1102 53.6982 99 3 226
1869042S18054 1869 3 SI MM NOT_NAMED 1869-02-12 00:00:00 NR -18.2153 53.5847 main 360 355 _____P________ -1 -18.2153 53.5847 99 3 225
1869042S18054 1869 3 SI MM NOT_NAMED 1869-02-12 03:00:00 NR -18.3440 53.4530 main 355 349 _____P________ -1 -18.3440 53.4530 99 4 224
1869042S18054 1869 3 SI MM NOT_NAMED 1869-02-12 06:00:00 NR -18.5000 53.3000 reunion main 349 338 _____O________ -1 -18.5000 53.3000 99 9.90000 5 222
1869042S18054 1869 3 SI MM NOT_NAMED 1869-02-12 09:00:00 NR -18.6859 53.1237 main 345 336 _____P________ -1 -18.6859 53.1237 99 5 222
1869042S18054 1869 3 SI MM NOT_NAMED 1869-02-12 12:00:00 NR -18.8988 52.9264 main 343 335 _____P________ -1 -18.8988 52.9264 99 6 221
1869042S18054 1869 3 SI MM NOT_NAMED 1869-02-12 15:00:00 NR -19.1342 52.7117 main 343 336 _____P________ -1 -19.1342 52.7117 99 6 221
1869042S18054 1869 3 SI MM NOT_NAMED 1869-02-12 18:00:00 NR -19.3880 52.4830 main 339 337 _____P________ -1 -19.3880 52.4830 99 7 220
1869042S18054 1869 3 SI MM NOT_NAMED 1869-02-12 21:00:00 NR -19.6557 52.2439 main 334 320 _____P________ -1 -19.6557 52.2439 99 7 220
1869042S18054 1869 3 SI MM NOT_NAMED 1869-02-13 00:00:00 NR -19.9331 51.9979 main 320 308 _____P________ -1 -19.9331 51.9979 99 7 220
1869042S18054 1869 3 SI MM NOT_NAMED 1869-02-13 03:00:00 NR -20.2159 51.7488 main 303 287 _____P________ -1 -20.2159 51.7488 99 7 219
1869042S18054 1869 3 SI MM NOT_NAMED 1869-02-13 06:00:00 NR -20.5000 51.5000 reunion main 287 272 _____O________ -1 -20.5000 51.5000 99 9.90000 7 220
1869042S18054 1869 3 SI MM NOT_NAMED 1869-02-13 09:00:00 NR -20.7754 51.2521 main 275 254 _____P________ -1 -20.7754 51.2521 99 7 220
1869042S18054 1869 3 SI MM NOT_NAMED 1869-02-13 12:00:00 NR -21.0561 51.0003 main 259 245 _____P________ -1 -21.0561 51.0003 99 7 220
1869042S18054 1869 3 SI MM NOT_NAMED 1869-02-13 15:00:00 NR -21.3396 50.7480 main 240 227 _____P________ -1 -21.3396 50.7480 99 7 220
1869042S18054 1869 3 SI MM NOT_NAMED 1869-02-13 18:00:00 NR -21.6229 50.4986 main 227 211 _____P________ -1 -21.6229 50.4986 99 7 219
1869042S18054 1869 3 SI MM NOT_NAMED 1869-02-13 21:00:00 NR -21.9034 50.2555 main 214 188 _____P________ -1 -21.9034 50.2555 99 7 219
1869042S18054 1869 3 SI MM NOT_NAMED 1869-02-14 00:00:00 NR -22.1782 50.0223 main 190 177 _____P________ -1 -22.1782 50.0223 99 7 218
1869042S18054 1869 3 SI MM NOT_NAMED 1869-02-14 03:00:00 NR -22.4446 49.8026 main 177 168 _____P________ -1 -22.4446 49.8026 99 7 217
1869042S18054 1869 3 SI MM NOT_NAMED 1869-02-14 06:00:00 NR -22.7000 49.6000 reunion main 172 160 _____O________ -1 -22.7000 49.6000 99 9.90000 6 216
1869042S18054 1869 3 SI MM NOT_NAMED 1869-02-14 09:00:00 NR -22.9314 49.4241 main 160 153 _____P________ -1 -22.9314 49.4241 99 5 214
1869042S18054 1869 3 SI MM NOT_NAMED 1869-02-14 12:00:00 NR -23.1520 49.2655 main 157 140 _____P________ -1 -23.1520 49.2655 99 5 213
1869042S18054 1869 3 SI MM NOT_NAMED 1869-02-14 15:00:00 NR -23.3644 49.1209 main 142 133 _____P________ -1 -23.3644 49.1209 99 5 211
1869042S18054 1869 3 SI MM NOT_NAMED 1869-02-14 18:00:00 NR -23.5714 48.9874 main 134 124 _____P________ -1 -23.5714 48.9874 99 5 210
1869042S18054 1869 3 SI MM NOT_NAMED 1869-02-14 21:00:00 NR -23.7758 48.8617 main 130 120 _____P________ -1 -23.7758 48.8617 99 5 209
1869042S18054 1869 3 SI MM NOT_NAMED 1869-02-15 00:00:00 NR -23.9803 48.7407 main 120 112 _____P________ -1 -23.9803 48.7407 99 5 208
1869042S18054 1869 3 SI MM NOT_NAMED 1869-02-15 03:00:00 NR -24.1874 48.6212 main 113 106 _____P________ -1 -24.1874 48.6212 99 5 208
1869042S18054 1869 3 SI MM NOT_NAMED 1869-02-15 06:00:00 NR -24.4000 48.5000 reunion main 110 106 _____O________ -1 -24.4000 48.5000 99 9.90000 5 209
1869042S18054 1869 3 SI MM NOT_NAMED 1869-02-15 09:00:00 NR -24.6186 48.3584 main 110 96 _____P________ -1 -24.6186 48.3584 99 5 210
1869042S18054 1869 3 SI MM NOT_NAMED 1869-02-15 12:00:00 NR -24.8403 48.2163 main 96 96 _____P________ -1 -24.8403 48.2163 99 5 210
1869042S18054 1869 3 SI MM NOT_NAMED 1869-02-15 15:00:00 NR -25.0662 48.0747 main 101 87 _____P________ -1 -25.0662 48.0747 99 5 209
1869042S18054 1869 3 SI MM NOT_NAMED 1869-02-15 18:00:00 NR -25.2975 47.9342 main 87 83 _____P________ -1 -25.2975 47.9342 99 5 208
1869042S18054 1869 3 SI MM NOT_NAMED 1869-02-15 21:00:00 NR -25.5354 47.7957 main 89 89 _____P________ -1 -25.5354 47.7957 99 5 207
1869042S18054 1869 3 SI MM NOT_NAMED 1869-02-16 00:00:00 NR -25.7810 47.6600 main 105 98 _____P________ -1 -25.7810 47.6600 99 6 206
1869042S18054 1869 3 SI MM NOT_NAMED 1869-02-16 03:00:00 NR -26.0354 47.5278 main 112 112 _____P________ -1 -26.0354 47.5278 99 6 204
1869042S18054 1869 3 SI MM NOT_NAMED 1869-02-16 06:00:00 NR -26.3000 47.4000 reunion main 136 136 _____O________ -1 -26.3000 47.4000 99 9.90000 6 202
1869042S18054 1869 3 SI MM NOT_NAMED 1869-02-16 09:00:00 NR -26.5754 47.2771 main 164 164 _____P________ -1 -26.5754 47.2771 99 6 201
1869042S18054 1869 3 SI MM NOT_NAMED 1869-02-16 12:00:00 NR -26.8606 47.1586 main 194 192 _____P________ -1 -26.8606 47.1586 99 6 200
1869042S18054 1869 3 SI MM NOT_NAMED 1869-02-16 15:00:00 NR -27.1544 47.0438 main 224 224 _____P________ -1 -27.1544 47.0438 99 6 199
1869042S18054 1869 3 SI MM NOT_NAMED 1869-02-16 18:00:00 NR -27.4551 46.9319 main 253 253 _____P________ -1 -27.4551 46.9319 99 6 198
1869042S18054 1869 3 SI MM NOT_NAMED 1869-02-16 21:00:00 NR -27.7615 46.8224 main 277 277 _____P________ -1 -27.7615 46.8224 99 6 197
1869042S18054 1869 3 SI MM NOT_NAMED 1869-02-17 00:00:00 NR -28.0721 46.7143 main 303 303 _____P________ -1 -28.0721 46.7143 99 7 197
1869042S18054 1869 3 SI MM NOT_NAMED 1869-02-17 03:00:00 NR -28.3854 46.6071 main 331 331 _____P________ -1 -28.3854 46.6071 99 7 197
1869042S18054 1869 3 SI MM NOT_NAMED 1869-02-17 06:00:00 NR -28.7000 46.5000 reunion main 360 _____O________ -1 -28.7000 46.5000 99 9.90000 7 197

About IBTrACS Database

This database is a web-friendly format of International Best Track Archive for Climate Stewardship (IBTrACS), a global best track data archive curated by NOAA dating back to 1842.

Updated: 2021-11-26